createdAt,value
2018-03-23T00:00:02.427Z,13.32
2018-03-23T00:02:29.136Z,12.27
2018-03-23T00:04:55.871Z,11.20
2018-03-23T00:07:22.592Z,12.27
2018-03-23T00:09:49.336Z,13.18
2018-03-23T00:12:16.052Z,12.95
2018-03-23T00:14:42.770Z,11.40
2018-03-23T00:17:09.512Z,12.73
2018-03-23T00:19:36.208Z,12.50
2018-03-23T00:22:02.922Z,12.02
2018-03-23T00:24:29.624Z,13.32
2018-03-23T00:26:56.335Z,13.25
2018-03-23T00:29:23.037Z,12.02
2018-03-23T00:31:49.733Z,12.05
2018-03-23T00:34:16.526Z,12.15
2018-03-23T00:36:43.228Z,12.77
2018-03-23T00:39:09.959Z,12.07
2018-03-23T00:41:36.667Z,12.13
2018-03-23T00:44:03.359Z,11.55
2018-03-23T00:46:30.082Z,12.90
2018-03-23T00:48:56.783Z,12.40
2018-03-23T00:51:23.488Z,12.10
2018-03-23T00:53:50.187Z,11.85
2018-03-23T00:56:16.894Z,11.85
2018-03-23T00:58:44.334Z,12.00
2018-03-23T01:01:11.044Z,13.13
2018-03-23T01:03:37.766Z,12.60
2018-03-23T01:06:04.475Z,12.00
2018-03-23T01:08:31.181Z,12.10
2018-03-23T01:10:57.888Z,11.12
2018-03-23T01:13:24.586Z,11.15
2018-03-23T01:15:51.316Z,11.52
2018-03-23T01:18:18.011Z,12.55
2018-03-23T01:20:44.708Z,11.48
2018-03-23T01:23:11.412Z,11.70
2018-03-23T01:25:38.118Z,11.60
2018-03-23T01:28:04.823Z,12.63
2018-03-23T01:30:31.526Z,11.27
2018-03-23T01:32:58.229Z,11.18
2018-03-23T01:35:24.956Z,11.15
2018-03-23T01:37:51.654Z,12.13
2018-03-23T01:40:18.362Z,11.20
2018-03-23T01:42:45.088Z,10.75
2018-03-23T01:45:11.813Z,11.18
2018-03-23T01:47:38.548Z,10.50
2018-03-23T01:50:05.261Z,11.52
2018-03-23T01:52:31.963Z,11.00
2018-03-23T01:54:58.717Z,12.35
2018-03-23T01:57:25.426Z,11.45
2018-03-23T01:59:52.127Z,10.68
2018-03-23T02:02:18.837Z,12.55
2018-03-23T02:04:45.543Z,12.57
2018-03-23T02:07:12.239Z,11.50
2018-03-23T02:09:38.955Z,12.63
2018-03-23T02:12:05.648Z,11.70
2018-03-23T02:14:32.344Z,17.45
2018-03-23T02:16:59.107Z,15.63
2018-03-23T02:19:25.792Z,15.20
2018-03-23T02:21:52.500Z,46.53
2018-03-23T02:24:19.251Z,19.25
2018-03-23T02:26:46.003Z,25.70
2018-03-23T02:29:12.699Z,34.95
2018-03-23T02:31:39.426Z,11.35
2018-03-23T02:34:06.142Z,7.90
2018-03-23T02:36:32.839Z,6.78
2018-03-23T02:38:59.531Z,8.10
2018-03-23T02:41:26.248Z,7.20
2018-03-23T02:43:52.944Z,7.18
2018-03-23T02:46:19.709Z,9.52
2018-03-23T02:48:46.419Z,9.25
2018-03-23T02:51:13.144Z,7.30
2018-03-23T02:53:39.873Z,9.80
2018-03-23T02:56:06.573Z,7.15
2018-03-23T02:58:33.283Z,7.75
2018-03-23T03:01:00.009Z,9.60
2018-03-23T03:03:26.738Z,8.23
2018-03-23T03:05:53.466Z,10.80
2018-03-23T03:08:20.189Z,7.95
2018-03-23T03:10:46.902Z,7.70
2018-03-23T03:13:13.591Z,8.32
2018-03-23T03:15:40.343Z,13.57
2018-03-23T03:18:07.051Z,9.32
2018-03-23T03:20:33.750Z,8.07
2018-03-23T03:23:00.449Z,7.75
2018-03-23T03:25:27.143Z,7.00
2018-03-23T03:27:53.881Z,7.37
2018-03-23T03:30:20.596Z,8.07
2018-03-23T03:32:47.307Z,7.55
2018-03-23T03:35:13.991Z,7.75
2018-03-23T03:37:40.712Z,6.80
2018-03-23T03:40:07.402Z,7.40
2018-03-23T03:42:34.102Z,7.22
2018-03-23T03:45:00.809Z,7.50
2018-03-23T03:47:27.502Z,8.05
2018-03-23T03:49:54.240Z,7.68
2018-03-23T03:52:20.911Z,7.55
2018-03-23T03:54:47.599Z,8.10
2018-03-23T03:57:14.296Z,8.30
2018-03-23T03:59:40.990Z,8.65
2018-03-23T04:02:07.700Z,7.07
2018-03-23T04:04:34.381Z,6.15
2018-03-23T04:07:01.052Z,7.12
2018-03-23T04:09:27.736Z,7.40
2018-03-23T04:11:54.462Z,8.55
2018-03-23T04:14:21.136Z,7.55
2018-03-23T04:16:47.811Z,8.80
2018-03-23T04:19:14.480Z,8.20
2018-03-23T04:21:41.160Z,8.10
2018-03-23T04:24:07.856Z,8.05
2018-03-23T04:26:34.536Z,8.77
2018-03-23T04:29:01.245Z,7.95
2018-03-23T04:31:27.952Z,8.57
2018-03-23T04:33:54.632Z,8.60
2018-03-23T04:36:21.304Z,8.57
2018-03-23T04:38:47.992Z,9.10
2018-03-23T04:41:14.673Z,10.55
2018-03-23T04:43:41.344Z,8.60
2018-03-23T04:46:08.204Z,8.00
2018-03-23T04:48:34.880Z,7.78
2018-03-23T04:51:01.557Z,8.30
2018-03-23T04:53:28.232Z,8.02
2018-03-23T04:55:54.927Z,8.52
2018-03-23T04:58:21.602Z,8.20
2018-03-23T05:00:48.302Z,8.82
2018-03-23T05:03:14.982Z,9.02
2018-03-23T05:05:41.660Z,8.77
2018-03-23T05:08:08.361Z,9.05
2018-03-23T05:10:35.039Z,9.07
2018-03-23T05:13:01.720Z,8.85
2018-03-23T05:15:28.397Z,10.25
2018-03-23T05:17:55.076Z,10.10
2018-03-23T05:20:21.752Z,9.75
2018-03-23T05:22:48.442Z,10.40
2018-03-23T05:25:15.152Z,10.40
2018-03-23T05:27:41.872Z,10.23
2018-03-23T05:30:08.548Z,9.93
2018-03-23T05:32:35.237Z,10.27
2018-03-23T05:35:01.914Z,11.38
2018-03-23T05:37:28.583Z,10.88
2018-03-23T05:39:55.281Z,10.32
2018-03-23T05:42:21.955Z,10.90
2018-03-23T05:44:48.654Z,10.25
2018-03-23T05:47:15.334Z,9.23
2018-03-23T05:49:42.035Z,11.07
2018-03-23T05:52:08.740Z,10.40
2018-03-23T05:54:35.439Z,11.05
2018-03-23T05:57:02.118Z,10.98
2018-03-23T05:59:28.792Z,9.80
2018-03-23T06:01:55.484Z,10.63
2018-03-23T06:04:22.162Z,11.82
2018-03-23T06:06:48.857Z,10.10
2018-03-23T06:09:15.535Z,11.27
2018-03-23T06:11:42.236Z,10.55
2018-03-23T06:14:08.913Z,10.30
2018-03-23T06:16:35.612Z,10.20
2018-03-23T06:19:02.293Z,10.25
2018-03-23T06:21:29.016Z,10.43
2018-03-23T06:23:55.701Z,9.27
2018-03-23T06:26:22.376Z,10.82
2018-03-23T06:28:49.056Z,9.15
2018-03-23T06:31:15.737Z,10.13
2018-03-23T06:33:42.421Z,11.32
2018-03-23T06:36:09.097Z,10.98
2018-03-23T06:38:35.801Z,11.70
2018-03-23T06:41:02.500Z,11.55
2018-03-23T06:43:29.180Z,10.45
2018-03-23T06:45:55.874Z,10.32
2018-03-23T06:48:22.547Z,9.60
2018-03-23T06:50:49.312Z,10.48
2018-03-23T06:53:15.982Z,9.73
2018-03-23T06:55:42.672Z,11.10
2018-03-23T06:58:09.354Z,11.40
2018-03-23T07:00:36.030Z,11.70
2018-03-23T07:03:02.717Z,11.88
2018-03-23T07:05:29.397Z,11.18
2018-03-23T07:07:56.080Z,10.45
2018-03-23T07:10:22.760Z,10.55
2018-03-23T07:12:49.457Z,10.60
2018-03-23T07:15:16.135Z,11.50
2018-03-23T07:17:42.853Z,10.50
2018-03-23T07:20:09.600Z,10.30
2018-03-23T07:22:36.280Z,10.50
2018-03-23T07:25:02.972Z,10.05
2018-03-23T07:27:29.681Z,11.73
2018-03-23T07:29:56.365Z,10.95
2018-03-23T07:32:23.040Z,9.88
2018-03-23T07:34:49.773Z,10.38
2018-03-23T07:37:16.505Z,11.50
2018-03-23T07:39:43.194Z,10.35
2018-03-23T07:42:09.873Z,10.43
2018-03-23T07:44:36.544Z,11.23
2018-03-23T07:47:03.221Z,11.15
2018-03-23T07:49:29.900Z,11.70
2018-03-23T07:51:56.642Z,12.63
2018-03-23T07:54:23.316Z,12.07
2018-03-23T07:56:49.998Z,12.70
2018-03-23T07:59:16.682Z,12.60
2018-03-23T08:01:43.359Z,9.55
2018-03-23T08:04:10.049Z,10.60
2018-03-23T08:06:36.735Z,11.70
2018-03-23T08:09:03.436Z,10.48
2018-03-23T08:11:30.115Z,10.57
2018-03-23T08:13:56.818Z,10.43
2018-03-23T08:16:23.507Z,9.30
2018-03-23T08:18:50.180Z,10.57
2018-03-23T08:21:16.956Z,9.38
2018-03-23T08:23:43.632Z,10.13
2018-03-23T08:26:10.335Z,10.50
2018-03-23T08:28:37.018Z,10.02
2018-03-23T08:31:03.732Z,9.38
2018-03-23T08:33:30.395Z,9.80
2018-03-23T08:35:57.076Z,9.75
2018-03-23T08:38:23.774Z,9.60
2018-03-23T08:40:50.448Z,10.23
2018-03-23T08:43:17.144Z,8.48
2018-03-23T08:45:43.820Z,8.23
2018-03-23T08:48:10.500Z,8.75
2018-03-23T08:50:37.179Z,8.30
2018-03-23T08:53:03.860Z,8.38
2018-03-23T08:55:30.549Z,7.30
2018-03-23T08:57:57.242Z,7.65
2018-03-23T09:00:23.934Z,7.62
2018-03-23T09:02:50.666Z,9.35
2018-03-23T09:05:17.347Z,9.30
2018-03-23T09:07:44.044Z,8.18
2018-03-23T09:10:10.770Z,7.95
2018-03-23T09:12:37.450Z,8.80
2018-03-23T09:15:04.152Z,7.50
2018-03-23T09:17:30.893Z,8.00
2018-03-23T09:19:57.603Z,8.00
2018-03-23T09:22:24.299Z,7.62
2018-03-23T09:24:51.012Z,7.72
2018-03-23T09:27:17.727Z,7.55
2018-03-23T09:29:44.426Z,7.20
2018-03-23T09:32:11.191Z,7.55
2018-03-23T09:34:37.992Z,8.93
2018-03-23T09:37:04.721Z,7.57
2018-03-23T09:39:31.485Z,7.60
2018-03-23T09:41:58.217Z,7.70
2018-03-23T09:44:25.009Z,7.07
2018-03-23T09:46:51.740Z,7.00
2018-03-23T09:49:18.491Z,7.65
2018-03-23T09:51:45.260Z,7.10
2018-03-23T09:54:12.271Z,7.28
2018-03-23T09:56:40.486Z,7.97
2018-03-23T09:59:08.005Z,9.85
2018-03-23T10:01:34.810Z,7.75
2018-03-23T10:04:01.753Z,8.63
2018-03-23T10:06:28.768Z,8.40
2018-03-23T10:08:55.729Z,8.38
2018-03-23T10:11:22.596Z,8.63
2018-03-23T10:13:49.314Z,7.20
2018-03-23T10:16:16.046Z,7.22
2018-03-23T10:18:42.797Z,7.45
2018-03-23T10:21:09.610Z,6.97
2018-03-23T10:23:36.481Z,6.93
2018-03-23T10:26:03.274Z,7.30
2018-03-23T10:28:30.034Z,7.55
2018-03-23T10:30:56.835Z,7.93
2018-03-23T10:33:23.624Z,6.93
2018-03-23T10:35:50.384Z,7.03
2018-03-23T10:38:17.186Z,6.72
2018-03-23T10:40:43.918Z,7.15
2018-03-23T10:43:10.712Z,8.27
2018-03-23T10:45:37.520Z,7.20
2018-03-23T10:48:04.414Z,7.30
2018-03-23T10:50:31.119Z,6.20
2018-03-23T10:52:57.874Z,5.43
2018-03-23T10:55:24.621Z,6.10
2018-03-23T10:57:51.377Z,4.97
2018-03-23T11:00:33.886Z,5.55
2018-03-23T11:03:00.677Z,5.37
2018-03-23T11:05:27.396Z,5.90
2018-03-23T11:07:54.194Z,5.85
2018-03-23T11:10:20.918Z,5.32
2018-03-23T11:12:47.748Z,5.70
2018-03-23T11:15:14.489Z,6.00
2018-03-23T11:17:41.290Z,6.03
2018-03-23T11:20:08.014Z,6.60
2018-03-23T11:22:34.784Z,6.30
2018-03-23T11:25:01.553Z,6.80
2018-03-23T11:27:28.330Z,7.32
2018-03-23T11:29:55.047Z,6.30
2018-03-23T11:32:21.795Z,6.40
2018-03-23T11:34:48.472Z,6.50
2018-03-23T11:37:15.520Z,7.25
2018-03-23T11:39:42.278Z,6.47
2018-03-23T11:42:08.981Z,6.75
2018-03-23T11:44:35.717Z,6.60
2018-03-23T11:47:02.399Z,7.32
2018-03-23T11:49:29.120Z,7.18
2018-03-23T11:51:55.820Z,6.80
2018-03-23T11:54:22.512Z,6.95
2018-03-23T11:56:49.221Z,6.85
2018-03-23T11:59:15.920Z,7.82
2018-03-23T12:01:42.592Z,7.97
2018-03-23T12:04:09.314Z,6.90
2018-03-23T12:06:35.988Z,7.47
2018-03-23T12:09:02.722Z,7.12
2018-03-23T12:11:29.396Z,7.93
2018-03-23T12:13:56.073Z,8.02
2018-03-23T12:16:22.792Z,8.30
2018-03-23T12:18:49.482Z,7.15
2018-03-23T12:21:16.184Z,6.40
2018-03-23T12:23:42.861Z,8.30
2018-03-23T12:26:09.604Z,8.15
2018-03-23T12:28:36.292Z,7.70
2018-03-23T12:31:02.976Z,8.30
2018-03-23T12:33:29.684Z,7.93
2018-03-23T12:35:56.369Z,8.85
2018-03-23T12:38:23.046Z,7.97
2018-03-23T12:40:49.712Z,8.40
2018-03-23T12:43:16.413Z,8.95
2018-03-23T12:45:43.082Z,8.85
2018-03-23T12:48:09.863Z,10.95
2018-03-23T12:50:36.544Z,9.77
2018-03-23T12:53:03.216Z,9.20
2018-03-23T12:55:29.984Z,9.00
2018-03-23T12:57:56.659Z,9.13
2018-03-23T13:00:23.361Z,8.45
2018-03-23T13:02:50.030Z,8.45
2018-03-23T13:05:16.704Z,8.50
2018-03-23T13:07:43.380Z,9.90
2018-03-23T13:10:10.067Z,9.70
2018-03-23T13:12:36.757Z,9.80
2018-03-23T13:15:03.433Z,8.63
2018-03-23T13:17:30.162Z,10.43
2018-03-23T13:19:56.841Z,9.70
2018-03-23T13:22:23.557Z,8.77
2018-03-23T13:24:50.237Z,8.60
2018-03-23T13:27:16.919Z,8.15
2018-03-23T13:29:43.612Z,9.05
2018-03-23T13:32:10.284Z,9.18
2018-03-23T13:34:36.961Z,9.52
2018-03-23T13:37:03.660Z,10.48
2018-03-23T13:39:30.361Z,9.18
2018-03-23T13:41:57.056Z,10.32
2018-03-23T13:44:23.753Z,9.75
2018-03-23T13:46:50.452Z,9.80
2018-03-23T13:49:17.130Z,10.75
2018-03-23T13:51:43.834Z,11.90
2018-03-23T13:54:10.514Z,12.52
2018-03-23T13:56:37.222Z,11.57
2018-03-23T13:59:09.821Z,12.30
2018-03-23T14:01:41.476Z,12.35
2018-03-23T14:04:08.163Z,12.30
2018-03-23T14:06:34.858Z,13.57
2018-03-23T14:09:01.611Z,13.00
2018-03-23T14:11:28.290Z,13.23
2018-03-23T14:13:55.009Z,13.27
2018-03-23T14:16:21.739Z,12.35
2018-03-23T14:18:48.486Z,12.95
2018-03-23T14:21:15.205Z,12.18
2018-03-23T14:23:41.892Z,12.32
2018-03-23T14:26:08.603Z,12.98
2018-03-23T14:28:35.281Z,12.35
2018-03-23T14:31:01.976Z,14.98
2018-03-23T14:33:28.648Z,12.40
2018-03-23T14:35:55.334Z,14.48
2018-03-23T14:38:22.066Z,11.75
2018-03-23T14:40:48.793Z,12.70
2018-03-23T14:43:15.474Z,11.82
2018-03-23T14:45:42.153Z,12.35
2018-03-23T14:48:08.848Z,12.50
2018-03-23T14:50:36.073Z,12.73
2018-03-23T14:53:02.771Z,13.85
2018-03-23T14:55:29.485Z,13.18
2018-03-23T14:57:56.215Z,15.82
2018-03-23T15:00:22.898Z,14.38
2018-03-23T15:02:49.586Z,15.25
2018-03-23T15:05:16.303Z,14.38
2018-03-23T15:07:42.992Z,15.18
2018-03-23T15:10:09.682Z,14.73
2018-03-23T15:12:36.388Z,14.77
2018-03-23T15:15:03.060Z,15.02
2018-03-23T15:17:29.752Z,14.75
2018-03-23T15:19:56.454Z,13.88
2018-03-23T15:22:23.136Z,15.35
2018-03-23T15:24:49.900Z,15.32
2018-03-23T15:27:16.581Z,16.00
2018-03-23T15:29:43.293Z,15.45
2018-03-23T15:32:09.995Z,15.43
2018-03-23T15:34:36.698Z,16.15
2018-03-23T15:37:03.391Z,15.95
2018-03-23T15:39:30.151Z,15.75
2018-03-23T15:41:56.822Z,16.02
2018-03-23T15:44:23.509Z,15.10
2018-03-23T15:46:50.252Z,15.88
2018-03-23T15:49:16.939Z,17.80
2018-03-23T15:51:43.662Z,15.60
2018-03-23T15:54:10.358Z,17.10
2018-03-23T15:56:37.056Z,16.65
2018-03-23T15:59:03.863Z,15.95
2018-03-23T16:01:30.553Z,15.85
2018-03-23T16:03:57.257Z,15.70
2018-03-23T16:06:23.961Z,15.93
2018-03-23T16:08:50.669Z,15.82
2018-03-23T16:11:17.382Z,14.90
2018-03-23T16:13:44.136Z,15.40
2018-03-23T16:16:10.818Z,15.82
2018-03-23T16:18:37.495Z,16.48
2018-03-23T16:21:04.184Z,18.62
2018-03-23T16:23:30.890Z,17.27
2018-03-23T16:25:57.599Z,16.15
2018-03-23T16:28:24.312Z,15.77
2018-03-23T16:30:51.031Z,15.10
2018-03-23T16:33:17.739Z,15.55
2018-03-23T16:35:44.426Z,15.90
2018-03-23T16:38:11.115Z,17.48
2018-03-23T16:40:37.829Z,14.63
2018-03-23T16:43:04.537Z,15.77
2018-03-23T16:45:31.433Z,15.75
2018-03-23T16:47:58.123Z,16.27
2018-03-23T16:50:24.917Z,16.65
2018-03-23T16:52:51.751Z,17.27
2018-03-23T16:55:18.494Z,16.08
2018-03-23T16:57:45.180Z,14.73
2018-03-23T17:00:11.890Z,16.48
2018-03-23T17:02:38.609Z,16.98
2018-03-23T17:05:05.368Z,16.42
2018-03-23T17:07:32.059Z,16.65
2018-03-23T17:09:58.744Z,16.77
2018-03-23T17:12:25.466Z,17.67
2018-03-23T17:14:52.162Z,17.52
2018-03-23T17:17:18.848Z,16.33
2018-03-23T17:19:45.539Z,17.48
2018-03-23T17:22:12.289Z,17.83
2018-03-23T17:24:38.966Z,17.50
2018-03-23T17:27:05.661Z,16.50
2018-03-23T17:29:32.377Z,16.12
2018-03-23T17:31:59.152Z,16.80
2018-03-23T17:34:25.922Z,15.88
2018-03-23T17:36:52.649Z,16.73
2018-03-23T17:39:19.329Z,16.52
2018-03-23T17:41:46.009Z,17.50
2018-03-23T17:44:12.694Z,17.85
2018-03-23T17:46:39.376Z,16.12
2018-03-23T17:49:06.181Z,17.25
2018-03-23T17:51:32.873Z,17.42
2018-03-23T17:53:59.559Z,15.02
2018-03-23T17:56:26.261Z,17.90
2018-03-23T17:58:52.937Z,17.90
2018-03-23T18:01:19.632Z,18.52
2018-03-23T18:03:46.304Z,15.60
2018-03-23T18:06:12.984Z,18.52
2018-03-23T18:08:39.705Z,17.58
2018-03-23T18:11:06.405Z,17.55
2018-03-23T18:13:33.086Z,18.30
2018-03-23T18:15:59.765Z,18.87
2018-03-23T18:18:26.444Z,19.33
2018-03-23T18:20:53.144Z,20.08
2018-03-23T18:23:19.867Z,19.30
2018-03-23T18:25:46.601Z,20.23
2018-03-23T18:28:13.286Z,19.65
2018-03-23T18:30:39.988Z,19.00
2018-03-23T18:33:06.672Z,20.77
2018-03-23T18:35:33.362Z,18.52
2018-03-23T18:38:00.143Z,20.52
2018-03-23T18:40:26.829Z,19.60
2018-03-23T18:42:53.514Z,19.17
2018-03-23T18:45:20.252Z,20.95
2018-03-23T18:47:46.944Z,19.48
2018-03-23T18:50:13.657Z,19.05
2018-03-23T18:52:40.423Z,17.85
2018-03-23T18:55:07.176Z,18.70
2018-03-23T18:57:33.888Z,19.05
2018-03-23T19:00:00.611Z,19.12
2018-03-23T19:02:27.293Z,19.45
2018-03-23T19:04:53.991Z,19.65
2018-03-23T19:07:20.738Z,18.05
2018-03-23T19:09:47.504Z,20.17
2018-03-23T19:12:14.209Z,18.48
2018-03-23T19:14:40.900Z,18.10
2018-03-23T19:17:07.604Z,19.23
2018-03-23T19:19:34.293Z,18.55
2018-03-23T19:22:00.991Z,19.27
2018-03-23T19:24:27.699Z,19.50
2018-03-23T19:26:54.373Z,20.12
2018-03-23T19:29:21.079Z,18.17
2018-03-23T19:31:47.790Z,20.73
2018-03-23T19:34:14.486Z,20.60
2018-03-23T19:36:41.223Z,21.70
2018-03-23T19:39:07.928Z,19.10
2018-03-23T19:41:34.658Z,20.58
2018-03-23T19:44:01.354Z,18.90
2018-03-23T19:46:28.041Z,18.90
2018-03-23T19:48:54.750Z,18.67
2018-03-23T19:51:21.445Z,18.67
2018-03-23T19:53:48.184Z,19.77
2018-03-23T19:56:15.699Z,18.20
2018-03-23T19:58:42.434Z,19.52
2018-03-23T20:01:09.226Z,19.15
2018-03-23T20:03:36.042Z,19.60
2018-03-23T20:06:02.752Z,19.95
2018-03-23T20:08:29.434Z,20.95
2018-03-23T20:10:56.152Z,19.98
2018-03-23T20:13:22.840Z,19.75
2018-03-23T20:15:49.536Z,17.48
2018-03-23T20:18:21.932Z,17.85
2018-03-23T20:20:54.216Z,18.90
2018-03-23T20:23:20.914Z,20.23
2018-03-23T20:25:47.600Z,19.87
2018-03-23T20:28:20.122Z,18.90
2018-03-23T20:30:46.805Z,20.42
2018-03-23T20:33:13.555Z,19.95
2018-03-23T20:35:40.237Z,21.02
2018-03-23T20:38:06.921Z,20.30
2018-03-23T20:40:33.640Z,17.50
2018-03-23T20:43:00.343Z,20.48
2018-03-23T20:45:27.018Z,20.23
2018-03-23T20:47:53.730Z,21.12
2018-03-23T20:50:20.424Z,20.80
2018-03-23T20:52:47.114Z,19.75
2018-03-23T20:55:13.809Z,20.15
2018-03-23T20:57:40.508Z,19.70
2018-03-23T21:00:07.223Z,20.85
2018-03-23T21:02:33.975Z,18.80
2018-03-23T21:05:00.709Z,20.05
2018-03-23T21:07:27.428Z,20.88
2018-03-23T21:09:54.133Z,20.05
2018-03-23T21:12:20.831Z,20.90
2018-03-23T21:14:47.519Z,22.80
2018-03-23T21:17:14.201Z,19.45
2018-03-23T21:19:40.885Z,19.05
2018-03-23T21:22:07.595Z,20.12
2018-03-23T21:24:34.294Z,20.23
2018-03-23T21:27:01.005Z,20.02
2018-03-23T21:29:27.684Z,20.60
2018-03-23T21:31:54.388Z,19.77
2018-03-23T21:34:21.097Z,20.65
2018-03-23T21:36:47.785Z,20.70
2018-03-23T21:39:14.469Z,20.85
2018-03-23T21:41:41.172Z,21.15
2018-03-23T21:44:07.877Z,21.45
2018-03-23T21:46:34.568Z,20.88
2018-03-23T21:49:01.276Z,22.23
2018-03-23T21:51:27.965Z,20.50
2018-03-23T21:53:54.673Z,19.67
2018-03-23T21:56:21.362Z,19.60
2018-03-23T21:58:48.050Z,19.95
2018-03-23T22:01:14.720Z,21.50
2018-03-23T22:03:41.410Z,19.67
2018-03-23T22:06:08.120Z,21.98
2018-03-23T22:08:34.825Z,20.50
2018-03-23T22:11:01.509Z,22.00
2018-03-23T22:13:28.189Z,20.02
2018-03-23T22:15:55.083Z,20.90
2018-03-23T22:18:21.769Z,21.23
2018-03-23T22:20:48.452Z,18.92
2018-03-23T22:23:15.170Z,21.58
2018-03-23T22:25:41.880Z,18.75
2018-03-23T22:28:08.604Z,19.90
2018-03-23T22:30:35.432Z,20.05
2018-03-23T22:33:02.161Z,22.15
2018-03-23T22:35:28.844Z,20.00
2018-03-23T22:37:55.528Z,18.40
2018-03-23T22:40:22.219Z,19.80
2018-03-23T22:42:48.944Z,19.52
2018-03-23T22:45:15.689Z,20.08
2018-03-23T22:47:42.396Z,21.27
2018-03-23T22:50:09.090Z,21.40
2018-03-23T22:52:36.632Z,21.37
2018-03-23T22:55:03.368Z,20.58
2018-03-23T22:57:30.046Z,20.10
2018-03-23T22:59:56.777Z,20.40
2018-03-23T23:02:23.484Z,20.77
2018-03-23T23:04:50.179Z,19.92
2018-03-23T23:07:16.903Z,20.85
2018-03-23T23:09:43.586Z,20.25
2018-03-23T23:12:10.297Z,20.80
2018-03-23T23:14:36.994Z,22.15
2018-03-23T23:17:03.698Z,21.85
2018-03-23T23:19:30.381Z,21.77
2018-03-23T23:21:57.103Z,22.02
2018-03-23T23:24:23.811Z,22.48
2018-03-23T23:26:50.586Z,22.60
2018-03-23T23:29:17.264Z,21.70
2018-03-23T23:31:43.940Z,20.85
2018-03-23T23:34:10.657Z,20.60
2018-03-23T23:36:37.359Z,20.83
2018-03-23T23:39:04.057Z,21.75
2018-03-23T23:41:30.753Z,22.25
2018-03-23T23:43:57.436Z,22.58
2018-03-23T23:46:24.154Z,22.48
2018-03-23T23:48:50.846Z,22.95
2018-03-23T23:51:17.533Z,22.52
2018-03-23T23:53:44.244Z,21.92
2018-03-23T23:56:10.924Z,22.23
2018-03-23T23:58:37.644Z,21.60
